sensor_id;sensor_type;location;lat;lon;timestamp;pressure;altitude;pressure_sealevel;temperature;humidity
50684;BME280;36654;45.042;38.994;2023-10-09T00:00:57;100930.97;;;10.06;75.89
50684;BME280;36654;45.042;38.994;2023-10-09T00:03:47;100946.94;;;10.10;75.99
50684;BME280;36654;45.042;38.994;2023-10-09T00:06:19;100858.69;;;9.58;76.26
50684;BME280;36654;45.042;38.994;2023-10-09T00:08:55;100957.50;;;10.07;76.20
50684;BME280;36654;45.042;38.994;2023-10-09T00:11:21;100951.34;;;10.10;76.58
50684;BME280;36654;45.042;38.994;2023-10-09T00:13:51;100954.97;;;10.15;76.45
50684;BME280;36654;45.042;38.994;2023-10-09T00:16:23;100950.56;;;10.15;76.30
50684;BME280;36654;45.042;38.994;2023-10-09T00:19:06;100914.09;;;9.99;76.05
50684;BME280;36654;45.042;38.994;2023-10-09T00:21:55;100962.94;;;10.18;76.25
50684;BME280;36654;45.042;38.994;2023-10-09T00:24:21;100920.16;;;9.92;76.60
50684;BME280;36654;45.042;38.994;2023-10-09T00:26:50;100985.97;;;10.21;76.17
50684;BME280;36654;45.042;38.994;2023-10-09T00:29:17;100971.69;;;10.12;76.16
50684;BME280;36654;45.042;38.994;2023-10-09T00:31:58;100972.59;;;10.13;75.95
50684;BME280;36654;45.042;38.994;2023-10-09T00:34:39;100927.94;;;9.81;75.98
50684;BME280;36654;45.042;38.994;2023-10-09T00:37:11;100983.13;;;10.10;76.21
50684;BME280;36654;45.042;38.994;2023-10-09T00:39:48;100975.19;;;10.08;75.80
50684;BME280;36654;45.042;38.994;2023-10-09T00:42:21;100944.69;;;9.82;76.24
50684;BME280;36654;45.042;38.994;2023-10-09T00:44:56;100980.44;;;10.07;76.42
50684;BME280;36654;45.042;38.994;2023-10-09T00:47:22;100943.94;;;9.90;76.52
50684;BME280;36654;45.042;38.994;2023-10-09T00:50:07;100949.47;;;10.03;76.53
50684;BME280;36654;45.042;38.994;2023-10-09T00:52:44;100949.47;;;10.03;76.46
50684;BME280;36654;45.042;38.994;2023-10-09T00:55:20;100941.59;;;10.07;76.31
50684;BME280;36654;45.042;38.994;2023-10-09T00:58:06;100939.81;;;10.06;76.30
50684;BME280;36654;45.042;38.994;2023-10-09T01:00:38;100974.22;;;10.05;76.58
50684;BME280;36654;45.042;38.994;2023-10-09T01:03:12;100967.13;;;10.02;76.40
50684;BME280;36654;45.042;38.994;2023-10-09T01:05:38;100919.84;;;9.75;76.37
50684;BME280;36654;45.042;38.994;2023-10-09T01:08:11;100974.88;;;9.93;76.46
50684;BME280;36654;45.042;38.994;2023-10-09T01:10:49;100969.50;;;9.87;76.35
50684;BME280;36654;45.042;38.994;2023-10-09T01:13:23;100993.41;;;9.91;76.38
50684;BME280;36654;45.042;38.994;2023-10-09T01:15:57;100916.06;;;9.59;76.52
50684;BME280;36654;45.042;38.994;2023-10-09T01:18:24;100947.41;;;9.85;76.70
50684;BME280;36654;45.042;38.994;2023-10-09T01:20:57;100971.41;;;9.94;76.84
50684;BME280;36654;45.042;38.994;2023-10-09T01:23:23;100979.34;;;9.94;76.92
50684;BME280;36654;45.042;38.994;2023-10-09T01:25:49;100974.03;;;9.94;76.94
50684;BME280;36654;45.042;38.994;2023-10-09T01:28:15;100961.66;;;9.91;77.31
50684;BME280;36654;45.042;38.994;2023-10-09T01:30:42;100967.75;;;9.87;77.01
50684;BME280;36654;45.042;38.994;2023-10-09T01:33:09;100960.69;;;9.88;76.77
50684;BME280;36654;45.042;38.994;2023-10-09T01:35:48;100948.28;;;9.84;77.17
50684;BME280;36654;45.042;38.994;2023-10-09T01:38:16;100949.16;;;9.86;77.02
50684;BME280;36654;45.042;38.994;2023-10-09T01:40:41;100950.97;;;9.87;76.84
50684;BME280;36654;45.042;38.994;2023-10-09T01:43:09;100958.03;;;9.88;76.76
50684;BME280;36654;45.042;38.994;2023-10-09T01:45:38;100959.84;;;9.89;76.43
50684;BME280;36654;45.042;38.994;2023-10-09T01:48:12;100949.16;;;9.84;76.19
50684;BME280;36654;45.042;38.994;2023-10-09T01:50:40;100953.50;;;9.81;75.92
50684;BME280;36654;45.042;38.994;2023-10-09T01:53:08;100945.53;;;9.81;75.90
50684;BME280;36654;45.042;38.994;2023-10-09T01:55:34;100976.66;;;9.91;75.70
50684;BME280;36654;45.042;38.994;2023-10-09T01:58:11;100928.53;;;9.66;75.66
50684;BME280;36654;45.042;38.994;2023-10-09T02:00:46;100943.56;;;9.67;75.46
50684;BME280;36654;45.042;38.994;2023-10-09T02:03:19;100919.47;;;9.52;75.22
50684;BME280;36654;45.042;38.994;2023-10-09T02:05:49;100956.84;;;9.69;75.55
50684;BME280;36654;45.042;38.994;2023-10-09T02:08:17;100961.19;;;9.67;75.62
50684;BME280;36654;45.042;38.994;2023-10-09T02:10:47;100949.44;;;9.51;75.70
50684;BME280;36654;45.042;38.994;2023-10-09T02:13:13;100964.50;;;9.54;76.11
50684;BME280;36654;45.042;38.994;2023-10-09T02:15:42;100977.69;;;9.52;76.15
50684;BME280;36654;45.042;38.994;2023-10-09T02:18:15;100974.09;;;9.50;76.42
50684;BME280;36654;45.042;38.994;2023-10-09T02:20:44;100929.53;;;9.24;76.31
50684;BME280;36654;45.042;38.994;2023-10-09T02:23:20;100918.81;;;9.18;76.10
50684;BME280;36654;45.042;38.994;2023-10-09T02:25:49;100965.19;;;9.45;75.90
50684;BME280;36654;45.042;38.994;2023-10-09T02:28:18;100961.50;;;9.37;75.88
50684;BME280;36654;45.042;38.994;2023-10-09T02:30:45;100963.22;;;9.35;75.96
50684;BME280;36654;45.042;38.994;2023-10-09T02:33:17;100959.72;;;9.36;76.21
50684;BME280;36654;45.042;38.994;2023-10-09T02:35:56;100965.00;;;9.36;76.08
50684;BME280;36654;45.042;38.994;2023-10-09T02:38:27;100972.16;;;9.40;76.21
50684;BME280;36654;45.042;38.994;2023-10-09T02:40:52;100964.88;;;9.29;76.42
50684;BME280;36654;45.042;38.994;2023-10-09T02:43:38;100972.78;;;9.28;76.52
50684;BME280;36654;45.042;38.994;2023-10-09T02:46:19;100966.56;;;9.24;76.72
50684;BME280;36654;45.042;38.994;2023-10-09T02:48:55;100989.69;;;9.35;77.11
50684;BME280;36654;45.042;38.994;2023-10-09T02:51:26;100995.03;;;9.36;77.04
50684;BME280;36654;45.042;38.994;2023-10-09T02:53:56;100983.34;;;9.26;76.82
50684;BME280;36654;45.042;38.994;2023-10-09T02:56:25;100997.47;;;9.27;77.03
50684;BME280;36654;45.042;38.994;2023-10-09T02:59:08;100979.78;;;9.26;77.03
50684;BME280;36654;45.042;38.994;2023-10-09T03:01:38;100977.13;;;9.24;77.15
50684;BME280;36654;45.042;38.994;2023-10-09T03:04:05;100993.94;;;9.28;77.17
50684;BME280;36654;45.042;38.994;2023-10-09T03:06:36;100989.63;;;9.32;77.00
50684;BME280;36654;45.042;38.994;2023-10-09T03:09:19;100996.63;;;9.29;76.93
50684;BME280;36654;45.042;38.994;2023-10-09T03:11:54;100997.41;;;9.24;76.90
50684;BME280;36654;45.042;38.994;2023-10-09T03:14:21;101008.72;;;9.18;77.05
50684;BME280;36654;45.042;38.994;2023-10-09T03:16:52;101009.56;;;9.14;77.18
50684;BME280;36654;45.042;38.994;2023-10-09T03:19:18;101005.09;;;9.13;77.26
50684;BME280;36654;45.042;38.994;2023-10-09T03:21:43;101003.34;;;9.12;77.30
50684;BME280;36654;45.042;38.994;2023-10-09T03:24:09;101015.69;;;9.13;77.34
50684;BME280;36654;45.042;38.994;2023-10-09T03:26:36;101009.50;;;9.11;77.68
50684;BME280;36654;45.042;38.994;2023-10-09T03:29:02;100968.31;;;8.81;77.65
50684;BME280;36654;45.042;38.994;2023-10-09T03:31:32;101008.34;;;9.00;77.98
50684;BME280;36654;45.042;38.994;2023-10-09T03:33:59;101015.47;;;9.02;78.06
50684;BME280;36654;45.042;38.994;2023-10-09T03:36:25;100983.16;;;8.76;78.00
50684;BME280;36654;45.042;38.994;2023-10-09T03:38:52;101025.88;;;8.95;78.01
50684;BME280;36654;45.042;38.994;2023-10-09T03:41:20;101024.72;;;8.83;78.14
50684;BME280;36654;45.042;38.994;2023-10-09T03:43:46;101033.69;;;8.90;77.96
50684;BME280;36654;45.042;38.994;2023-10-09T03:46:12;101055.81;;;8.94;78.02
50684;BME280;36654;45.042;38.994;2023-10-09T03:48:48;101047.69;;;8.86;78.17
50684;BME280;36654;45.042;38.994;2023-10-09T03:51:15;101048.72;;;8.93;77.99
50684;BME280;36654;45.042;38.994;2023-10-09T03:53:51;101065.81;;;9.07;78.11
50684;BME280;36654;45.042;38.994;2023-10-09T03:56:18;101061.47;;;9.09;78.03
50684;BME280;36654;45.042;38.994;2023-10-09T03:58:51;101060.63;;;9.12;77.86
50684;BME280;36654;45.042;38.994;2023-10-09T04:01:21;101075.69;;;9.14;77.29
50684;BME280;36654;45.042;38.994;2023-10-09T04:03:57;101077.38;;;9.12;77.13
50684;BME280;36654;45.042;38.994;2023-10-09T04:06:30;101082.75;;;9.15;76.96
50684;BME280;36654;45.042;38.994;2023-10-09T04:09:03;101091.50;;;9.13;76.96
50684;BME280;36654;45.042;38.994;2023-10-09T04:11:47;101087.03;;;9.09;76.96
50684;BME280;36654;45.042;38.994;2023-10-09T04:14:25;101096.69;;;9.08;76.94
50684;BME280;36654;45.042;38.994;2023-10-09T04:16:57;101101.91;;;9.05;77.05
50684;BME280;36654;45.042;38.994;2023-10-09T04:19:52;101090.44;;;9.04;77.17
50684;BME280;36654;45.042;38.994;2023-10-09T04:22:40;101087.91;;;9.09;77.08
50684;BME280;36654;45.042;38.994;2023-10-09T04:25:35;101045.25;;;8.94;77.04
50684;BME280;36654;45.042;38.994;2023-10-09T04:28:08;101100.69;;;9.28;77.10
50684;BME280;36654;45.042;38.994;2023-10-09T04:30:54;101100.88;;;9.38;76.76
50684;BME280;36654;45.042;38.994;2023-10-09T04:33:21;101082.34;;;9.38;76.74
50684;BME280;36654;45.042;38.994;2023-10-09T04:36:05;101101.03;;;9.44;76.26
50684;BME280;36654;45.042;38.994;2023-10-09T04:38:47;101095.69;;;9.42;76.07
50684;BME280;36654;45.042;38.994;2023-10-09T04:41:22;101103.78;;;9.48;75.83
50684;BME280;36654;45.042;38.994;2023-10-09T04:43:57;101106.44;;;9.50;75.86
50684;BME280;36654;45.042;38.994;2023-10-09T04:46:41;101110.06;;;9.55;75.93
50684;BME280;36654;45.042;38.994;2023-10-09T04:49:12;101099.53;;;9.57;75.73
50684;BME280;36654;45.042;38.994;2023-10-09T04:51:54;101112.00;;;9.62;75.85
50684;BME280;36654;45.042;38.994;2023-10-09T04:54:43;101105.72;;;9.57;75.74
50684;BME280;36654;45.042;38.994;2023-10-09T04:57:28;101070.81;;;9.34;75.77
50684;BME280;36654;45.042;38.994;2023-10-09T04:59:54;101108.56;;;9.66;75.78
50684;BME280;36654;45.042;38.994;2023-10-09T05:02:26;101124.56;;;9.72;75.20
50684;BME280;36654;45.042;38.994;2023-10-09T05:05:02;101076.53;;;9.54;75.22
50684;BME280;36654;45.042;38.994;2023-10-09T05:08:02;101118.16;;;9.61;74.78
50684;BME280;36654;45.042;38.994;2023-10-09T05:11:05;101138.69;;;9.73;75.10
50684;BME280;36654;45.042;38.994;2023-10-09T05:18:56;101140.63;;;9.82;74.96
50684;BME280;36654;45.042;38.994;2023-10-09T05:21:26;101138.94;;;9.84;75.04
50684;BME280;36654;45.042;38.994;2023-10-09T05:24:12;101087.19;;;9.57;75.14
50684;BME280;36654;45.042;38.994;2023-10-09T05:26:51;101159.53;;;9.99;75.09
50684;BME280;36654;45.042;38.994;2023-10-09T05:29:23;101143.63;;;9.99;74.79
50684;BME280;36654;45.042;38.994;2023-10-09T05:31:49;101156.09;;;10.04;74.48
50684;BME280;36654;45.042;38.994;2023-10-09T05:34:34;101152.56;;;10.05;74.60
50684;BME280;36654;45.042;38.994;2023-10-09T05:37:02;101164.16;;;10.10;74.57
50684;BME280;36654;45.042;38.994;2023-10-09T05:39:48;101157.16;;;10.12;74.58
50684;BME280;36654;45.042;38.994;2023-10-09T05:42:33;101117.06;;;9.96;74.65
50684;BME280;36654;45.042;38.994;2023-10-09T05:45:05;101158.31;;;10.27;74.72
50684;BME280;36654;45.042;38.994;2023-10-09T05:47:50;101177.09;;;10.38;74.68
50684;BME280;36654;45.042;38.994;2023-10-09T05:50:23;101153.00;;;10.27;74.41
50684;BME280;36654;45.042;38.994;2023-10-09T05:52:50;101170.03;;;10.38;74.33
50684;BME280;36654;45.042;38.994;2023-10-09T05:55:28;101187.91;;;10.48;73.96
50684;BME280;36654;45.042;38.994;2023-10-09T05:58:13;101177.22;;;10.45;73.63
50684;BME280;36654;45.042;38.994;2023-10-09T06:01:12;101190.66;;;10.54;73.30
50684;BME280;36654;45.042;38.994;2023-10-09T06:03:58;101180.94;;;10.53;73.28
50684;BME280;36654;45.042;38.994;2023-10-09T06:06:41;101188.19;;;10.65;73.07
50684;BME280;36654;45.042;38.994;2023-10-09T06:09:21;101185.47;;;10.61;72.55
50684;BME280;36654;45.042;38.994;2023-10-09T06:11:49;101202.34;;;10.66;72.59
50684;BME280;36654;45.042;38.994;2023-10-09T06:14:24;101169.41;;;10.51;72.38
50684;BME280;36654;45.042;38.994;2023-10-09T06:16:57;101195.44;;;10.74;72.79
50684;BME280;36654;45.042;38.994;2023-10-09T06:19:41;101200.75;;;10.74;72.68
50684;BME280;36654;45.042;38.994;2023-10-09T06:22:10;101205.34;;;10.86;72.29
50684;BME280;36654;45.042;38.994;2023-10-09T06:25:05;101209.94;;;10.94;72.14
50684;BME280;36654;45.042;38.994;2023-10-09T06:27:38;101153.00;;;10.74;72.16
50684;BME280;36654;45.042;38.994;2023-10-09T06:30:12;101188.59;;;10.88;72.30
50684;BME280;36654;45.042;38.994;2023-10-09T06:32:44;101202.19;;;11.07;71.91
50684;BME280;36654;45.042;38.994;2023-10-09T06:35:16;101205.69;;;11.06;71.36
50684;BME280;36654;45.042;38.994;2023-10-09T06:37:48;101214.66;;;11.11;70.49
50684;BME280;36654;45.042;38.994;2023-10-09T06:40:39;101197.91;;;11.15;70.26
50684;BME280;36654;45.042;38.994;2023-10-09T06:43:20;101214.88;;;11.25;70.23
50684;BME280;36654;45.042;38.994;2023-10-09T06:45:50;101196.31;;;11.26;69.83
50684;BME280;36654;45.042;38.994;2023-10-09T06:48:34;101207.94;;;11.34;69.34
50684;BME280;36654;45.042;38.994;2023-10-09T06:53:46;101179.44;;;11.21;67.68
50684;BME280;36654;45.042;38.994;2023-10-09T06:56:19;101221.47;;;11.53;66.62
50684;BME280;36654;45.042;38.994;2023-10-09T06:58:57;101223.34;;;11.58;65.61
50684;BME280;36654;45.042;38.994;2023-10-09T07:01:26;101223.47;;;11.66;64.99
50684;BME280;36654;45.042;38.994;2023-10-09T07:04:11;101215.53;;;11.69;64.41
50684;BME280;36654;45.042;38.994;2023-10-09T07:06:55;101225.59;;;11.89;64.00
50684;BME280;36654;45.042;38.994;2023-10-09T07:09:21;101237.28;;;12.01;63.74
50684;BME280;36654;45.042;38.994;2023-10-09T07:11:51;101235.72;;;12.20;62.45
50684;BME280;36654;45.042;38.994;2023-10-09T07:14:22;101232.28;;;12.27;59.94
50684;BME280;36654;45.042;38.994;2023-10-09T07:19:26;101219.25;;;12.52;56.96
50684;BME280;36654;45.042;38.994;2023-10-09T07:22:11;101227.47;;;12.70;53.93
50684;BME280;36654;45.042;38.994;2023-10-09T07:24:46;101235.63;;;12.90;53.12
50684;BME280;36654;45.042;38.994;2023-10-09T07:27:19;101243.78;;;13.09;52.31
50684;BME280;36654;45.042;38.994;2023-10-09T07:30:07;101235.88;;;13.23;52.33
50684;BME280;36654;45.042;38.994;2023-10-09T07:32:54;101231.50;;;13.26;52.60
50684;BME280;36654;45.042;38.994;2023-10-09T07:35:23;101204.81;;;13.15;52.87
50684;BME280;36654;45.042;38.994;2023-10-09T07:38:20;101241.53;;;13.56;51.95
50684;BME280;36654;45.042;38.994;2023-10-09T07:40:48;101246.94;;;13.66;51.38
50684;BME280;36654;45.042;38.994;2023-10-09T07:45:52;101269.19;;;13.80;48.93
50684;BME280;36654;45.042;38.994;2023-10-09T07:48:24;101239.81;;;13.68;48.17
50684;BME280;36654;45.042;38.994;2023-10-09T07:50:51;101245.25;;;13.86;49.01
50684;BME280;36654;45.042;38.994;2023-10-09T07:53:23;101255.94;;;13.89;48.52
50684;BME280;36654;45.042;38.994;2023-10-09T07:55:57;101214.00;;;13.59;48.36
50684;BME280;36654;45.042;38.994;2023-10-09T07:58:32;101239.84;;;13.74;49.21
50684;BME280;36654;45.042;38.994;2023-10-09T08:01:12;101268.19;;;13.63;49.40
50684;BME280;36654;45.042;38.994;2023-10-09T08:04:08;101252.91;;;13.34;48.56
50684;BME280;36654;45.042;38.994;2023-10-09T08:06:37;101250.97;;;13.19;47.75
50684;BME280;36654;45.042;38.994;2023-10-09T08:09:04;101227.63;;;12.89;48.36
50684;BME280;36654;45.042;38.994;2023-10-09T08:11:39;101270.25;;;12.95;48.82
50684;BME280;36654;45.042;38.994;2023-10-09T08:14:06;101256.88;;;12.86;49.92
50684;BME280;36654;45.042;38.994;2023-10-09T08:16:50;101272.97;;;13.01;50.18
50684;BME280;36654;45.042;38.994;2023-10-09T08:19:37;101291.84;;;13.26;50.15
50684;BME280;36654;45.042;38.994;2023-10-09T08:22:18;101260.88;;;13.34;49.99
50684;BME280;36654;45.042;38.994;2023-10-09T08:24:50;101285.78;;;13.42;49.39
50684;BME280;36654;45.042;38.994;2023-10-09T08:27:29;101286.66;;;13.40;49.33
50684;BME280;36654;45.042;38.994;2023-10-09T08:30:02;101277.06;;;13.60;50.08
50684;BME280;36654;45.042;38.994;2023-10-09T08:32:47;101300.34;;;13.87;49.98
50684;BME280;36654;45.042;38.994;2023-10-09T08:35:34;101286.22;;;14.02;47.50
50684;BME280;36654;45.042;38.994;2023-10-09T08:38:01;101286.28;;;14.08;46.90
50684;BME280;36654;45.042;38.994;2023-10-09T08:40:41;101270.31;;;14.19;45.60
50684;BME280;36654;45.042;38.994;2023-10-09T08:46:04;101289.00;;;14.23;42.45
50684;BME280;36654;45.042;38.994;2023-10-09T08:48:30;101287.19;;;14.13;40.19
50684;BME280;36654;45.042;38.994;2023-10-09T08:50:56;101275.50;;;13.88;39.86
50684;BME280;36654;45.042;38.994;2023-10-09T08:53:23;101294.16;;;13.88;39.94
50684;BME280;36654;45.042;38.994;2023-10-09T08:55:57;101285.22;;;13.81;39.56
50684;BME280;36654;45.042;38.994;2023-10-09T08:58:24;101280.97;;;14.13;39.14
50684;BME280;36654;45.042;38.994;2023-10-09T09:01:00;101289.03;;;14.30;39.64
50684;BME280;36654;45.042;38.994;2023-10-09T09:03:26;101293.53;;;14.38;39.81
50684;BME280;36654;45.042;38.994;2023-10-09T09:06:01;101293.53;;;14.41;40.18
50684;BME280;36654;45.042;38.994;2023-10-09T09:08:28;101300.53;;;14.18;40.56
50684;BME280;36654;45.042;38.994;2023-10-09T09:11:02;101306.72;;;14.14;40.38
50684;BME280;36654;45.042;38.994;2023-10-09T09:13:44;101304.84;;;13.96;40.57
50684;BME280;36654;45.042;38.994;2023-10-09T09:16:20;101318.84;;;13.67;41.65
50684;BME280;36654;45.042;38.994;2023-10-09T09:19:12;101297.31;;;13.38;42.41
50684;BME280;36654;45.042;38.994;2023-10-09T09:21:51;101293.84;;;13.48;42.64
50684;BME280;36654;45.042;38.994;2023-10-09T09:24:24;101319.81;;;13.77;42.40
50684;BME280;36654;45.042;38.994;2023-10-09T09:26:51;101302.22;;;14.00;41.12
50684;BME280;36654;45.042;38.994;2023-10-09T09:32:05;101270.16;;;13.91;40.83
50684;BME280;36654;45.042;38.994;2023-10-09T09:34:50;101293.25;;;13.92;41.54
50684;BME280;36654;45.042;38.994;2023-10-09T09:39:46;101290.75;;;14.15;41.14
50684;BME280;36654;45.042;38.994;2023-10-09T09:42:18;101286.25;;;14.10;41.86
50684;BME280;36654;45.042;38.994;2023-10-09T09:44:51;101290.63;;;14.00;42.18
50684;BME280;36654;45.042;38.994;2023-10-09T09:47:17;101263.00;;;13.81;42.54
50684;BME280;36654;45.042;38.994;2023-10-09T09:49:51;101292.22;;;13.67;43.06
50684;BME280;36654;45.042;38.994;2023-10-09T09:52:33;101286.88;;;13.66;43.33
50684;BME280;36654;45.042;38.994;2023-10-09T09:55:09;101285.97;;;13.61;43.70
50684;BME280;36654;45.042;38.994;2023-10-09T09:57:48;101298.31;;;13.52;43.49
50684;BME280;36654;45.042;38.994;2023-10-09T10:00:22;101279.72;;;13.60;43.60
50684;BME280;36654;45.042;38.994;2023-10-09T10:03:16;101275.31;;;13.61;43.55
50684;BME280;36654;45.042;38.994;2023-10-09T10:05:45;101291.50;;;13.94;42.31
50684;BME280;36654;45.042;38.994;2023-10-09T10:08:19;101296.75;;;13.85;40.31
50684;BME280;36654;45.042;38.994;2023-10-09T10:10:48;101304.81;;;13.91;40.63
50684;BME280;36654;45.042;38.994;2023-10-09T10:16:06;101300.41;;;13.93;41.91
50684;BME280;36654;45.042;38.994;2023-10-09T10:18:58;101310.09;;;13.84;41.79
50684;BME280;36654;45.042;38.994;2023-10-09T10:21:46;101311.94;;;13.91;42.50
50684;BME280;36654;45.042;38.994;2023-10-09T10:32:58;101331.53;;;14.00;41.17
50684;BME280;36654;45.042;38.994;2023-10-09T10:35:35;101338.47;;;13.77;41.08
50684;BME280;36654;45.042;38.994;2023-10-09T10:38:23;101344.63;;;13.70;41.81
50684;BME280;36654;45.042;38.994;2023-10-09T10:40:48;101353.59;;;13.81;42.02
50684;BME280;36654;45.042;38.994;2023-10-09T10:43:23;101351.97;;;14.01;42.32
50684;BME280;36654;45.042;38.994;2023-10-09T10:48:34;101316.56;;;14.24;39.52
50684;BME280;36654;45.042;38.994;2023-10-09T10:51:06;101310.38;;;14.31;39.01
50684;BME280;36654;45.042;38.994;2023-10-09T10:53:31;101334.41;;;14.37;38.82
50684;BME280;36654;45.042;38.994;2023-10-09T10:56:13;101321.03;;;14.30;39.11
50684;BME280;36654;45.042;38.994;2023-10-09T10:58:52;101301.31;;;13.98;39.11
50684;BME280;36654;45.042;38.994;2023-10-09T11:01:30;101352.00;;;14.08;39.45
50684;BME280;36654;45.042;38.994;2023-10-09T11:04:36;101330.63;;;13.98;38.94
50684;BME280;36654;45.042;38.994;2023-10-09T11:07:02;101322.63;;;13.97;39.46
50684;BME280;36654;45.042;38.994;2023-10-09T11:09:47;101348.47;;;14.06;38.77
50684;BME280;36654;45.042;38.994;2023-10-09T11:15:09;101303.91;;;13.89;38.93
50684;BME280;36654;45.042;38.994;2023-10-09T11:18:03;101348.50;;;14.15;38.73
50684;BME280;36654;45.042;38.994;2023-10-09T11:20:51;101357.47;;;14.26;39.09
50684;BME280;36654;45.042;38.994;2023-10-09T11:23:30;101348.56;;;14.21;39.31
50684;BME280;36654;45.042;38.994;2023-10-09T11:26:03;101368.06;;;14.20;39.39
50684;BME280;36654;45.042;38.994;2023-10-09T11:32:01;101379.63;;;14.17;39.46
50684;BME280;36654;45.042;38.994;2023-10-09T11:34:29;101360.94;;;14.13;39.66
50684;BME280;36654;45.042;38.994;2023-10-09T11:37:13;101388.44;;;14.06;40.12
50684;BME280;36654;45.042;38.994;2023-10-09T11:39:51;101374.97;;;13.90;40.26
50684;BME280;36654;45.042;38.994;2023-10-09T11:42:18;101391.84;;;13.88;39.90
50684;BME280;36654;45.042;38.994;2023-10-09T11:45:08;101388.31;;;13.89;37.90
50684;BME280;36654;45.042;38.994;2023-10-09T11:47:51;101394.53;;;13.89;37.43
50684;BME280;36654;45.042;38.994;2023-10-09T11:50:39;101400.81;;;13.96;38.22
50684;BME280;36654;45.042;38.994;2023-10-09T11:53:11;101362.63;;;13.98;38.96
50684;BME280;36654;45.042;38.994;2023-10-09T11:55:59;101335.78;;;13.71;37.96
50684;BME280;36654;45.042;38.994;2023-10-09T11:58:25;101400.75;;;13.90;36.76
50684;BME280;36654;45.042;38.994;2023-10-09T12:00:54;101383.75;;;13.77;37.83
50684;BME280;36654;45.042;38.994;2023-10-09T12:03:30;101405.97;;;13.76;38.37
50684;BME280;36654;45.042;38.994;2023-10-09T12:06:01;101404.22;;;13.78;38.87
50684;BME280;36654;45.042;38.994;2023-10-09T12:08:31;101418.53;;;13.91;39.11
50684;BME280;36654;45.042;38.994;2023-10-09T12:10:57;101388.19;;;13.75;39.05
50684;BME280;36654;45.042;38.994;2023-10-09T12:13:23;101408.53;;;13.67;39.62
50684;BME280;36654;45.042;38.994;2023-10-09T12:15:50;101389.91;;;13.70;39.35
50684;BME280;36654;45.042;38.994;2023-10-09T12:18:17;101397.78;;;13.57;39.37
50684;BME280;36654;45.042;38.994;2023-10-09T12:20:44;101396.03;;;13.56;39.03
50684;BME280;36654;45.042;38.994;2023-10-09T12:23:20;101392.41;;;13.50;39.35
50684;BME280;36654;45.042;38.994;2023-10-09T12:25:49;101397.69;;;13.45;40.26
50684;BME280;36654;45.042;38.994;2023-10-09T12:28:15;101427.88;;;13.44;40.25
50684;BME280;36654;45.042;38.994;2023-10-09T12:30:46;101408.25;;;13.36;40.67
50684;BME280;36654;45.042;38.994;2023-10-09T12:33:16;101372.41;;;13.06;41.54
50684;BME280;36654;45.042;38.994;2023-10-09T13:05:58;101431.78;;;13.02;40.71
50684;BME280;36654;45.042;38.994;2023-10-09T13:08:28;101435.28;;;12.97;41.42
50684;BME280;36654;45.042;38.994;2023-10-09T13:11:05;101451.16;;;12.89;42.73
50684;BME280;36654;45.042;38.994;2023-10-09T13:13:45;101446.66;;;12.85;43.62
50684;BME280;36654;45.042;38.994;2023-10-09T13:16:18;101446.63;;;12.82;44.04
50684;BME280;36654;45.042;38.994;2023-10-09T13:18:56;101445.66;;;12.77;44.64
50684;BME280;36654;45.042;38.994;2023-10-09T13:21:28;101443.75;;;12.66;45.02
50684;BME280;36654;45.042;38.994;2023-10-09T13:24:03;101454.47;;;12.71;45.45
50684;BME280;36654;45.042;38.994;2023-10-09T13:26:29;101446.31;;;12.60;45.54
50684;BME280;36654;45.042;38.994;2023-10-09T13:29:01;101466.78;;;12.64;45.74
50684;BME280;36654;45.042;38.994;2023-10-09T13:31:27;101473.75;;;12.58;45.93
50684;BME280;36654;45.042;38.994;2023-10-09T13:34:00;101447.81;;;12.43;46.33
50684;BME280;36654;45.042;38.994;2023-10-09T13:36:28;101463.94;;;12.52;46.28
50684;BME280;36654;45.042;38.994;2023-10-09T13:39:08;101475.38;;;12.46;45.99
50684;BME280;36654;45.042;38.994;2023-10-09T13:41:53;101473.50;;;12.39;46.36
50684;BME280;36654;45.042;38.994;2023-10-09T13:44:28;101477.81;;;12.33;46.52
50684;BME280;36654;45.042;38.994;2023-10-09T13:46:55;101436.56;;;12.03;46.72
50684;BME280;36654;45.042;38.994;2023-10-09T13:49:21;101487.41;;;12.23;47.12
50684;BME280;36654;45.042;38.994;2023-10-09T13:51:55;101494.31;;;12.12;46.93
50684;BME280;36654;45.042;38.994;2023-10-09T13:54:22;101464.91;;;12.01;46.59
50684;BME280;36654;45.042;38.994;2023-10-09T13:57:05;101488.03;;;12.06;46.60
50684;BME280;36654;45.042;38.994;2023-10-09T13:59:35;101474.56;;;11.97;46.49
50684;BME280;36654;45.042;38.994;2023-10-09T14:02:02;101473.84;;;12.06;46.79
50684;BME280;36654;45.042;38.994;2023-10-09T14:04:42;101481.94;;;12.14;46.74
50684;BME280;36654;45.042;38.994;2023-10-09T14:07:08;101474.91;;;12.17;46.29
50684;BME280;36654;45.042;38.994;2023-10-09T14:09:33;101476.50;;;12.07;46.62
50684;BME280;36654;45.042;38.994;2023-10-09T14:12:19;101472.00;;;12.02;46.89
50684;BME280;36654;45.042;38.994;2023-10-09T14:14:47;101489.84;;;12.09;46.58
50684;BME280;36654;45.042;38.994;2023-10-09T14:17:16;101494.19;;;12.04;46.41
50684;BME280;36654;45.042;38.994;2023-10-09T14:19:49;101496.00;;;12.06;46.63
50684;BME280;36654;45.042;38.994;2023-10-09T14:22:25;101497.69;;;12.03;46.58
50684;BME280;36654;45.042;38.994;2023-10-09T14:24:53;101490.44;;;11.93;46.15
50684;BME280;36654;45.042;38.994;2023-10-09T14:27:23;101497.50;;;11.91;45.91
50684;BME280;36654;45.042;38.994;2023-10-09T14:29:53;101505.41;;;11.87;46.23
50684;BME280;36654;45.042;38.994;2023-10-09T14:32:24;101501.69;;;11.79;46.34